Clarksburg, California
Current Conditions -  °F | °C
As of 11:53 AM on Friday 24 Oct 2014 (Local Time) from KSAC Reporting Station
Clear Clear  
Wind Chill: 66°   Ceiling: Unl
Heat Index: 66°   Visibility: 10mi
Dew Point: 53°   Wind: 0mph
Humidity: 63%   Direction: NA
Pressure: 29.96"   Gusts: NA
Location:  38.42°N, 121.53°W
Report Text: KSAC 241853Z 00000KT 10SM CLR 19/12 A2996 RMK AO2 SLP145 T01890117
Loading
Personal Weather Stations






























Interactive Weather Map
Tropical Storm Tracking
New forecast layout! Learn more

10-Day Weather Forecast

Advertisements
Track Severe Weather on mobile